createdAt,value
2022-12-01T09:08:04.037Z,1020.70
2022-12-01T09:09:03.883Z,1020.64
2022-12-01T09:10:03.874Z,1020.64
2022-12-01T09:11:03.857Z,1020.70
2022-12-01T09:12:03.851Z,1020.68
2022-12-01T09:13:03.823Z,1020.66
2022-12-01T09:14:03.817Z,1020.69
2022-12-01T09:15:03.829Z,1020.68
2022-12-01T09:16:03.935Z,1020.70
2022-12-01T09:17:03.776Z,1020.74
2022-12-01T09:18:03.770Z,1020.70
2022-12-01T09:19:03.760Z,1020.74
2022-12-01T09:20:03.769Z,1020.73
2022-12-01T09:21:03.751Z,1020.76
2022-12-01T09:22:03.722Z,1020.72
2022-12-01T09:23:03.713Z,1020.70
2022-12-01T09:24:03.721Z,1020.74
2022-12-01T09:25:03.718Z,1020.76
2022-12-01T09:26:03.695Z,1020.72
2022-12-01T09:27:03.672Z,1020.72
2022-12-01T09:28:03.664Z,1020.72
2022-12-01T09:29:03.645Z,1020.74
2022-12-01T09:30:03.664Z,1020.70
2022-12-01T09:31:03.679Z,1020.74
2022-12-01T09:32:03.609Z,1020.74
2022-12-01T09:33:03.600Z,1020.80
2022-12-01T09:34:03.584Z,1020.77
2022-12-01T09:35:03.583Z,1020.76
2022-12-01T09:36:03.573Z,1020.77
2022-12-01T09:37:03.567Z,1020.81
2022-12-01T09:38:03.550Z,1020.80
2022-12-01T09:39:03.547Z,1020.83
2022-12-01T09:40:03.570Z,1020.79
2022-12-01T09:41:03.560Z,1020.84
2022-12-01T09:42:08.477Z,1020.85
2022-12-01T09:43:04.499Z,1020.84
2022-12-01T09:44:03.470Z,1020.89
2022-12-01T09:45:03.478Z,1020.87
2022-12-01T09:46:03.463Z,1020.86
2022-12-01T09:47:03.543Z,1020.85
2022-12-01T09:48:03.423Z,1020.82
2022-12-01T09:49:03.430Z,1020.80
2022-12-01T09:50:03.414Z,1020.80
2022-12-01T09:51:03.395Z,1020.81
2022-12-01T09:52:03.396Z,1020.77
2022-12-01T09:53:03.373Z,1020.76
2022-12-01T09:54:03.378Z,1020.80
2022-12-01T09:55:03.353Z,1020.81
2022-12-01T09:56:10.005Z,1020.76
2022-12-01T09:57:04.385Z,1020.73
2022-12-01T09:58:03.333Z,1020.71
2022-12-01T09:59:03.307Z,1020.73
2022-12-01T10:00:03.295Z,1020.70
2022-12-01T10:01:03.356Z,1020.72
2022-12-01T10:02:03.330Z,1020.65
2022-12-01T10:03:03.304Z,1020.67
2022-12-01T10:04:03.245Z,1020.67
2022-12-01T10:05:03.312Z,1020.63
2022-12-01T10:06:26.765Z,1020.63
2022-12-01T10:07:04.214Z,1020.64
2022-12-01T10:08:03.266Z,1020.61
2022-12-01T10:09:03.205Z,1020.65
2022-12-01T10:10:03.175Z,1020.65
2022-12-01T10:11:03.168Z,1020.64
2022-12-01T10:12:03.192Z,1020.63
2022-12-01T10:13:03.162Z,1020.61
2022-12-01T10:14:03.130Z,1020.57
2022-12-01T10:15:03.146Z,1020.62
2022-12-01T10:16:03.179Z,1020.59
2022-12-01T10:17:03.113Z,1020.58
2022-12-01T10:18:03.116Z,1020.59
2022-12-01T10:19:03.095Z,1020.57
2022-12-01T10:20:03.075Z,1020.55
2022-12-01T10:21:03.059Z,1020.53
2022-12-01T10:22:03.053Z,1020.58
2022-12-01T10:23:03.031Z,1020.54
2022-12-01T10:24:03.071Z,1020.54
2022-12-01T10:25:03.010Z,1020.50
2022-12-01T10:26:02.995Z,1020.51
2022-12-01T10:27:02.988Z,1020.52
2022-12-01T10:28:02.993Z,1020.50
2022-12-01T10:29:02.981Z,1020.51
2022-12-01T10:30:02.961Z,1020.53
2022-12-01T10:31:02.950Z,1020.49
2022-12-01T10:32:03.002Z,1020.46
2022-12-01T10:33:02.918Z,1020.44
2022-12-01T10:34:02.919Z,1020.41
2022-12-01T10:35:02.909Z,1020.40
2022-12-01T10:36:02.897Z,1020.44
2022-12-01T10:37:02.885Z,1020.42
2022-12-01T10:38:02.881Z,1020.43
2022-12-01T10:39:02.865Z,1020.47
2022-12-01T10:40:02.858Z,1020.42
2022-12-01T10:41:02.843Z,1020.45
2022-12-01T10:42:02.826Z,1020.46
2022-12-01T10:43:02.821Z,1020.48
2022-12-01T10:44:02.915Z,1020.49
2022-12-01T10:45:02.816Z,1020.47
2022-12-01T10:46:02.821Z,1020.52
2022-12-01T10:47:02.825Z,1020.49
2022-12-01T10:48:02.761Z,1020.50
2022-12-01T10:49:02.739Z,1020.42
2022-12-01T10:50:02.740Z,1020.45
2022-12-01T10:51:02.714Z,1020.45
2022-12-01T10:52:02.737Z,1020.40
2022-12-01T10:53:02.695Z,1020.41
2022-12-01T10:54:02.683Z,1020.40
2022-12-01T10:55:02.710Z,1020.40
2022-12-01T10:56:02.675Z,1020.37
2022-12-01T10:57:02.649Z,1020.41
2022-12-01T10:58:07.732Z,1020.40
2022-12-01T10:59:03.645Z,1020.40
2022-12-01T11:00:02.638Z,1020.41
2022-12-01T11:01:02.827Z,1020.37
2022-12-01T11:02:02.808Z,1020.36
2022-12-01T11:03:02.802Z,1020.34
2022-12-01T11:04:02.649Z,1020.31
2022-12-01T11:05:02.572Z,1020.32
2022-12-01T11:06:02.567Z,1020.30
2022-12-01T11:07:02.531Z,1020.28
2022-12-01T11:08:02.627Z,1020.29
2022-12-01T11:09:02.523Z,1020.30
2022-12-01T11:10:02.510Z,1020.31
2022-12-01T11:11:02.513Z,1020.28
2022-12-01T11:12:02.491Z,1020.29
2022-12-01T11:13:02.473Z,1020.30
2022-12-01T11:14:02.462Z,1020.35
2022-12-01T11:15:02.457Z,1020.26
2022-12-01T11:16:02.596Z,1020.28
2022-12-01T11:17:02.473Z,1020.29
2022-12-01T11:18:02.408Z,1020.30
2022-12-01T11:19:02.470Z,1020.25
2022-12-01T11:20:02.435Z,1020.31
2022-12-01T11:21:02.386Z,1020.27
2022-12-01T11:22:02.376Z,1020.28
2022-12-01T11:23:02.367Z,1020.25
2022-12-01T11:24:02.348Z,1020.27
2022-12-01T11:25:02.344Z,1020.29
2022-12-01T11:26:02.329Z,1020.26
2022-12-01T11:27:02.321Z,1020.27
2022-12-01T11:28:02.305Z,1020.28
2022-12-01T11:29:02.310Z,1020.27
2022-12-01T11:30:02.298Z,1020.25
2022-12-01T11:31:02.297Z,1020.26
2022-12-01T11:32:02.500Z,1020.26
2022-12-01T11:33:02.251Z,1020.24
2022-12-01T11:34:02.223Z,1020.22
2022-12-01T11:35:02.216Z,1020.24
2022-12-01T11:36:02.219Z,1020.23
2022-12-01T11:37:02.209Z,1020.24
2022-12-01T11:39:03.186Z,1020.24
2022-12-01T11:40:02.170Z,1020.24
2022-12-01T11:41:02.153Z,1020.19
2022-12-01T11:42:02.162Z,1020.24
2022-12-01T11:43:02.144Z,1020.24
2022-12-01T11:44:03.922Z,1020.17
2022-12-01T11:45:02.115Z,1020.18
2022-12-01T11:46:02.201Z,1020.23
2022-12-01T11:47:22.234Z,1020.20
2022-12-01T11:48:03.086Z,1020.17
2022-12-01T11:49:02.078Z,1020.18
2022-12-01T11:50:02.054Z,1020.21
2022-12-01T11:51:02.155Z,1020.21
2022-12-01T11:52:02.032Z,1020.21
2022-12-01T11:53:02.026Z,1020.21
2022-12-01T11:54:01.999Z,1020.22
2022-12-01T11:55:05.740Z,1020.23
2022-12-01T11:56:02.971Z,1020.19
2022-12-01T11:57:32.553Z,1020.22
2022-12-01T11:58:02.970Z,1020.15
2022-12-01T11:59:01.962Z,1020.23
2022-12-01T12:00:01.944Z,1020.20
2022-12-01T12:01:01.942Z,1020.21
2022-12-01T12:02:01.987Z,1020.24
2022-12-01T12:03:01.996Z,1020.24
2022-12-01T12:04:01.923Z,1020.25
2022-12-01T12:05:01.876Z,1020.26
2022-12-01T12:06:18.175Z,1020.21
2022-12-01T12:07:02.867Z,1020.20
2022-12-01T12:08:02.152Z,1020.21
2022-12-01T12:09:01.833Z,1020.18
2022-12-01T12:10:01.833Z,1020.20
2022-12-01T12:11:01.880Z,1020.21
2022-12-01T12:12:01.791Z,1020.20
2022-12-01T12:13:01.807Z,1020.21
2022-12-01T12:14:01.774Z,1020.18
2022-12-01T12:15:01.763Z,1020.22
2022-12-01T12:16:01.763Z,1020.19
2022-12-01T12:17:01.754Z,1020.15
2022-12-01T12:18:01.789Z,1020.16
2022-12-01T12:19:01.774Z,1020.15
2022-12-01T12:20:09.631Z,1020.15
2022-12-01T12:21:02.718Z,1020.13
2022-12-01T12:22:01.702Z,1020.13
2022-12-01T12:23:01.678Z,1020.12
2022-12-01T12:24:01.724Z,1020.12
2022-12-01T12:25:01.666Z,1020.07
2022-12-01T12:26:01.650Z,1020.08
2022-12-01T12:27:01.640Z,1020.07
2022-12-01T12:28:01.620Z,1020.10
2022-12-01T12:29:01.619Z,1020.10
2022-12-01T12:30:01.625Z,1020.10
2022-12-01T12:31:01.668Z,1020.07
2022-12-01T12:32:01.586Z,1020.09
2022-12-01T12:33:01.573Z,1020.10
2022-12-01T12:34:01.574Z,1020.10
2022-12-01T12:35:01.600Z,1020.03
2022-12-01T12:36:01.568Z,1020.03
2022-12-01T12:37:01.532Z,1020.03
2022-12-01T12:38:01.518Z,1020.05
2022-12-01T12:39:01.513Z,1020.03
2022-12-01T12:40:01.509Z,1019.97
2022-12-01T12:41:01.501Z,1019.96
2022-12-01T12:42:01.476Z,1019.95
2022-12-01T12:43:01.459Z,1019.98
2022-12-01T12:44:01.453Z,1019.93
2022-12-01T12:45:01.476Z,1019.94
2022-12-01T12:46:01.480Z,1019.90
2022-12-01T12:47:01.426Z,1019.93
2022-12-01T12:48:01.410Z,1019.92
2022-12-01T12:49:19.236Z,1019.91
2022-12-01T12:50:02.425Z,1019.92
2022-12-01T12:51:01.364Z,1019.94
2022-12-01T12:52:07.831Z,1019.90
2022-12-01T12:53:02.342Z,1019.94
2022-12-01T12:54:01.405Z,1019.91
2022-12-01T12:55:01.325Z,1019.88
2022-12-01T12:56:01.322Z,1019.89
2022-12-01T12:57:01.286Z,1019.84
2022-12-01T12:58:02.664Z,1019.83
2022-12-01T12:59:01.263Z,1019.83
2022-12-01T13:00:01.259Z,1019.83
2022-12-01T13:01:01.269Z,1019.82
2022-12-01T13:02:01.251Z,1019.80
2022-12-01T13:03:01.284Z,1019.82
2022-12-01T13:04:01.215Z,1019.81
2022-12-01T13:05:01.206Z,1019.81
2022-12-01T13:06:01.207Z,1019.81
2022-12-01T13:07:01.184Z,1019.80
2022-12-01T13:08:01.243Z,1019.79
2022-12-01T13:09:01.151Z,1019.80
2022-12-01T13:10:01.206Z,1019.79
2022-12-01T13:11:01.137Z,1019.81
2022-12-01T13:12:01.111Z,1019.79
2022-12-01T13:13:01.122Z,1019.78
2022-12-01T13:14:01.099Z,1019.84
2022-12-01T13:15:01.555Z,1019.78
2022-12-01T13:16:01.231Z,1019.77
2022-12-01T13:17:01.077Z,1019.75
2022-12-01T13:18:01.064Z,1019.75
2022-12-01T13:19:01.051Z,1019.78
2022-12-01T13:20:01.033Z,1019.78
2022-12-01T13:21:01.041Z,1019.74
2022-12-01T13:22:01.092Z,1019.73
2022-12-01T13:23:01.021Z,1019.76
2022-12-01T13:24:01.007Z,1019.73
2022-12-01T13:25:00.970Z,1019.72
2022-12-01T13:26:00.954Z,1019.72
2022-12-01T13:27:00.963Z,1019.68
2022-12-01T13:28:00.933Z,1019.69
2022-12-01T13:29:00.930Z,1019.63
2022-12-01T13:30:00.908Z,1019.63
2022-12-01T13:31:00.998Z,1019.64
2022-12-01T13:32:00.912Z,1019.62
2022-12-01T13:33:00.892Z,1019.60
2022-12-01T13:34:00.864Z,1019.62
2022-12-01T13:35:00.857Z,1019.57
2022-12-01T13:36:38.022Z,1019.58
2022-12-01T13:37:01.845Z,1019.59
2022-12-01T13:38:00.821Z,1019.57
2022-12-01T13:39:00.807Z,1019.56
2022-12-01T13:40:00.819Z,1019.57
2022-12-01T13:41:00.799Z,1019.56
2022-12-01T13:42:00.828Z,1019.59
2022-12-01T13:43:05.463Z,1019.63
2022-12-01T13:44:01.758Z,1019.63
2022-12-01T13:45:00.738Z,1019.57
2022-12-01T13:46:00.745Z,1019.62
2022-12-01T13:47:00.781Z,1019.61
2022-12-01T13:48:00.749Z,1019.61
2022-12-01T13:49:00.705Z,1019.61
2022-12-01T13:50:00.685Z,1019.55
2022-12-01T13:51:00.685Z,1019.57
2022-12-01T13:52:00.685Z,1019.57
2022-12-01T13:53:00.696Z,1019.59
2022-12-01T13:54:00.671Z,1019.59
2022-12-01T13:55:00.643Z,1019.57
2022-12-01T13:56:00.680Z,1019.56
2022-12-01T13:57:00.629Z,1019.54
2022-12-01T13:58:00.608Z,1019.52
2022-12-01T13:59:00.601Z,1019.55
2022-12-01T14:00:00.588Z,1019.53
2022-12-01T14:01:00.680Z,1019.52
2022-12-01T14:02:00.609Z,1019.55
2022-12-01T14:03:00.581Z,1019.51
2022-12-01T14:04:00.529Z,1019.52
2022-12-01T14:05:00.522Z,1019.54
2022-12-01T14:06:00.517Z,1019.51
2022-12-01T14:07:00.503Z,1019.52
2022-12-01T14:08:00.588Z,1019.53
2022-12-01T14:09:00.484Z,1019.53
2022-12-01T14:10:00.473Z,1019.51
2022-12-01T14:11:00.462Z,1019.54
2022-12-01T14:12:00.478Z,1019.54
2022-12-01T14:13:00.419Z,1019.53
2022-12-01T14:14:00.431Z,1019.51
2022-12-01T14:15:00.452Z,1019.55
2022-12-01T14:16:00.460Z,1019.54
2022-12-01T14:17:00.392Z,1019.55
2022-12-01T14:18:00.378Z,1019.54
2022-12-01T14:19:00.367Z,1019.56
2022-12-01T14:20:00.397Z,1019.55
2022-12-01T14:21:00.347Z,1019.57
2022-12-01T14:22:00.337Z,1019.60
2022-12-01T14:23:00.320Z,1019.60
2022-12-01T14:24:00.300Z,1019.51
2022-12-01T14:25:00.297Z,1019.57
2022-12-01T14:26:00.303Z,1019.51
2022-12-01T14:27:00.275Z,1019.55
2022-12-01T14:28:00.291Z,1019.46
2022-12-01T14:29:00.248Z,1019.48
2022-12-01T14:30:00.251Z,1019.48
2022-12-01T14:31:00.282Z,1019.46
2022-12-01T14:32:00.211Z,1019.52
2022-12-01T14:33:00.207Z,1019.52
2022-12-01T14:34:00.201Z,1019.54
2022-12-01T14:35:00.206Z,1019.50
2022-12-01T14:36:00.188Z,1019.49
2022-12-01T14:37:00.148Z,1019.51
2022-12-01T14:38:00.156Z,1019.51
2022-12-01T14:39:00.125Z,1019.45
2022-12-01T14:40:00.132Z,1019.44
2022-12-01T14:41:00.140Z,1019.48
2022-12-01T14:42:00.101Z,1019.45
2022-12-01T14:43:00.086Z,1019.49
2022-12-01T14:44:00.110Z,1019.44
2022-12-01T14:45:00.179Z,1019.45
2022-12-01T14:46:00.064Z,1019.49
2022-12-01T14:47:00.188Z,1019.54
2022-12-01T14:48:00.036Z,1019.51
2022-12-01T14:49:00.026Z,1019.50
2022-12-01T14:50:00.608Z,1019.49
2022-12-01T14:51:00.041Z,1019.50
2022-12-01T14:52:00.076Z,1019.51
2022-12-01T14:52:59.968Z,1019.49
2022-12-01T14:54:00.011Z,1019.48
2022-12-01T14:54:59.962Z,1019.50
2022-12-01T14:55:59.939Z,1019.54
2022-12-01T14:57:05.658Z,1019.52
2022-12-01T14:58:00.918Z,1019.55
2022-12-01T14:58:59.899Z,1019.51
2022-12-01T14:59:59.914Z,1019.56
2022-12-01T15:00:59.924Z,1019.57
2022-12-01T15:02:00.095Z,1019.59
2022-12-01T15:02:59.875Z,1019.58
2022-12-01T15:03:59.847Z,1019.61
2022-12-01T15:04:59.832Z,1019.58
2022-12-01T15:05:59.823Z,1019.60
2022-12-01T15:06:59.821Z,1019.60
2022-12-01T15:08:18.738Z,1019.56
2022-12-01T15:09:31.577Z,1019.56
2022-12-01T15:10:00.801Z,1019.57
2022-12-01T15:10:59.765Z,1019.56
2022-12-01T15:11:59.771Z,1019.59
2022-12-01T15:12:59.744Z,1019.57
2022-12-01T15:13:59.734Z,1019.60
2022-12-01T15:14:59.814Z,1019.64
2022-12-01T15:15:59.801Z,1019.60
2022-12-01T15:16:59.736Z,1019.63
2022-12-01T15:17:59.688Z,1019.60
2022-12-01T15:18:59.686Z,1019.57
2022-12-01T15:19:59.665Z,1019.60
2022-12-01T15:20:59.658Z,1019.63
2022-12-01T15:21:59.654Z,1019.61
2022-12-01T15:22:59.639Z,1019.66
2022-12-01T15:23:59.638Z,1019.69
2022-12-01T15:24:59.601Z,1019.66
2022-12-01T15:25:59.641Z,1019.69
2022-12-01T15:27:03.742Z,1019.67
2022-12-01T15:27:59.591Z,1019.67
2022-12-01T15:28:59.561Z,1019.67
2022-12-01T15:29:59.565Z,1019.64
2022-12-01T15:30:59.541Z,1019.63
2022-12-01T15:31:59.835Z,1019.69
2022-12-01T15:32:59.539Z,1019.68
2022-12-01T15:33:59.506Z,1019.63
2022-12-01T15:34:59.491Z,1019.65
2022-12-01T15:35:59.502Z,1019.66
2022-12-01T15:36:59.489Z,1019.73
2022-12-01T15:37:59.487Z,1019.69
2022-12-01T15:39:05.239Z,1019.75
2022-12-01T15:40:25.587Z,1019.74
2022-12-01T15:41:27.879Z,1019.73
2022-12-01T15:42:00.426Z,1019.71
2022-12-01T15:42:59.439Z,1019.71
2022-12-01T15:43:59.393Z,1019.76
2022-12-01T15:45:00.503Z,1019.72
